Terminal Aerodrome Forecast
Issued by NWS

Home | Current Version | Previous Version | Text Only | Print | Product List | Glossary On
Versions: 1 2 3 4 5 6 7 8 9 10 11 12 13 14 15 16 17 18 19 20
279
FTUS41 KGYX 190526
TAFPSM
TAF
KPSM 190526Z 1906/2006 24011G16KT P6SM BKN120 OVC160
     FM190900 29008KT P6SM SCT070 BKN100
     FM191300 31012G22KT P6SM SKC
     FM200300 33006KT P6SM SKC=

USA.gov is the U.S. government's official web portal to all federal, state and local government web resources and services.